Time,TemperatureF,DewpointF,PressureIn,WindDirection,WindDirectionDegrees,WindSpeedMPH,WindSpeedGustMPH,Humidity,HourlyPrecipIn,Conditions,Clouds,dailyrainin,SoftwareType,DateUTC
2013-04-01 00:03:00,41.0,33.0,29.70,NW,311,6.0,13.0,74,0.00,,,0.01,,2013-04-01 04:03:00,
2013-04-01 00:14:00,41.0,33.0,29.70,NW,311,6.0,13.0,74,0.00,,,0.01,,2013-04-01 04:14:00,
2013-04-01 00:23:00,40.0,32.0,29.70,WNW,295,9.0,13.0,72,0.00,,,0.01,,2013-04-01 04:23:00,
2013-04-01 00:33:00,39.0,31.0,29.71,NW,326,4.0,8.0,72,0.00,,,0.01,,2013-04-01 04:33:00,
2013-04-01 00:43:00,39.0,31.0,29.71,NW,326,4.0,8.0,72,0.00,,,0.01,,2013-04-01 04:43:00,
2013-04-01 00:53:00,38.0,29.0,29.71,WNW,288,7.0,18.0,71,0.00,,,0.01,,2013-04-01 04:53:00,
2013-04-01 01:03:00,38.0,30.0,29.72,West,277,7.0,14.0,72,0.00,,,0.01,,2013-04-01 05:03:00,
2013-04-01 01:13:00,38.0,30.0,29.72,West,277,7.0,14.0,72,0.00,,,0.01,,2013-04-01 05:13:00,
2013-04-01 01:22:00,38.0,30.0,29.71,WNW,288,6.0,11.0,74,0.00,,,0.01,,2013-04-01 05:22:00,
2013-04-01 01:32:00,37.0,29.0,29.71,WNW,289,6.0,11.0,74,0.00,,,0.01,,2013-04-01 05:32:00,
2013-04-01 01:43:00,37.0,29.0,29.71,WNW,289,6.0,11.0,74,0.00,,,0.01,,2013-04-01 05:43:00,
2013-04-01 01:52:00,37.0,30.0,29.72,WNW,290,5.0,9.0,75,0.00,,,0.01,,2013-04-01 05:52:00,
2013-04-01 02:02:00,37.0,30.0,29.72,WNW,283,5.0,14.0,76,0.00,,,0.01,,2013-04-01 06:02:00,
2013-04-01 02:13:00,37.0,30.0,29.72,WNW,283,5.0,14.0,76,0.00,,,0.01,,2013-04-01 06:13:00,
2013-04-01 02:23:00,37.0,30.0,29.72,West,278,4.0,9.0,76,0.00,,,0.01,,2013-04-01 06:23:00,
2013-04-01 02:33:00,33.0,28.0,29.74,NE,51,4.0,9.0,83,0.00,,,0.01,,2013-04-01 06:33:00,
2013-04-01 02:43:00,33.0,28.0,29.74,NE,51,4.0,9.0,83,0.00,,,0.01,,2013-04-01 06:43:00,
2013-04-01 02:52:00,32.0,28.0,29.75,West,273,1.0,6.0,85,0.00,,,0.01,,2013-04-01 06:52:00,
2013-04-01 03:03:00,32.0,28.0,29.75,NW,316,1.0,7.0,84,0.00,,,0.01,,2013-04-01 07:03:00,
2013-04-01 03:13:00,32.0,28.0,29.75,NW,316,1.0,7.0,84,0.00,,,0.01,,2013-04-01 07:13:00,
2013-04-01 03:22:00,32.0,27.0,29.77,WNW,283,2.0,5.0,82,0.00,,,0.01,,2013-04-01 07:22:00,
2013-04-01 03:32:00,32.0,26.0,29.77,NNW,332,4.0,12.0,77,0.00,,,0.01,,2013-04-01 07:32:00,
2013-04-01 03:42:00,32.0,26.0,29.77,NNW,332,4.0,12.0,77,0.00,,,0.01,,2013-04-01 07:42:00,
2013-04-01 03:52:00,32.0,26.0,29.78,NNW,341,3.0,9.0,78,0.00,,,0.01,,2013-04-01 07:52:00,
2013-04-01 04:03:00,32.0,25.0,29.78,West,281,3.0,11.0,74,0.00,,,0.01,,2013-04-01 08:03:00,
2013-04-01 04:12:00,32.0,25.0,29.78,West,281,3.0,11.0,74,0.00,,,0.01,,2013-04-01 08:12:00,
2013-04-01 04:22:00,31.0,23.0,29.79,WNW,294,2.0,10.0,73,0.00,,,0.01,,2013-04-01 08:22:00,
2013-04-01 04:32:00,31.0,24.0,29.79,WNW,293,3.0,6.0,75,0.00,,,0.01,,2013-04-01 08:32:00,
2013-04-01 04:43:00,31.0,24.0,29.79,WNW,293,3.0,6.0,75,0.00,,,0.01,,2013-04-01 08:43:00,
2013-04-01 04:52:00,31.0,24.0,29.80,WNW,302,2.0,8.0,76,0.00,,,0.01,,2013-04-01 08:52:00,
2013-04-01 05:02:00,30.0,22.0,29.81,NW,305,4.0,7.0,71,0.00,,,0.01,,2013-04-01 09:02:00,
2013-04-01 05:12:00,30.0,22.0,29.81,NW,305,4.0,7.0,71,0.00,,,0.01,,2013-04-01 09:12:00,
2013-04-01 05:23:00,30.0,17.0,29.82,NW,308,5.0,14.0,58,0.00,,,0.01,,2013-04-01 09:23:00,
2013-04-01 05:33:00,30.0,17.0,29.83,West,278,4.0,13.0,58,0.00,,,0.01,,2013-04-01 09:33:00,
2013-04-01 05:43:00,30.0,17.0,29.83,West,278,4.0,13.0,58,0.00,,,0.01,,2013-04-01 09:43:00,
2013-04-01 05:53:00,29.0,18.0,29.84,SW,215,4.0,10.0,62,0.00,,,0.01,,2013-04-01 09:53:00,
2013-04-01 06:03:00,29.0,18.0,29.85,WNW,287,2.0,9.0,62,0.00,,,0.01,,2013-04-01 10:03:00,
2013-04-01 06:13:00,29.0,18.0,29.85,WNW,287,2.0,9.0,62,0.00,,,0.01,,2013-04-01 10:13:00,
2013-04-01 06:23:00,28.0,17.0,29.85,West,279,2.0,7.0,63,0.00,,,0.01,,2013-04-01 10:23:00,
2013-04-01 06:33:00,28.0,17.0,29.87,NW,304,2.0,7.0,64,0.00,,,0.01,,2013-04-01 10:33:00,
2013-04-01 06:42:00,28.0,17.0,29.87,NW,304,2.0,7.0,64,0.00,,,0.01,,2013-04-01 10:42:00,
2013-04-01 06:53:00,28.0,18.0,29.87,WNW,285,3.0,7.0,65,0.00,,,0.01,,2013-04-01 10:53:00,
2013-04-01 07:03:00,27.0,17.0,29.88,West,269,2.0,6.0,65,0.00,,,0.01,,2013-04-01 11:03:00,
2013-04-01 07:13:00,27.0,17.0,29.88,West,269,2.0,6.0,65,0.00,,,0.01,,2013-04-01 11:13:00,
2013-04-01 08:32:00,28.0,18.0,29.91,WNW,291,7.0,11.0,65,0.00,,,0.01,,2013-04-01 12:32:00,
2013-04-01 08:42:00,28.0,18.0,29.91,WNW,291,7.0,11.0,65,0.00,,,0.01,,2013-04-01 12:42:00,
2013-04-01 08:52:00,28.0,17.0,29.92,NW,319,5.0,10.0,62,0.00,,,0.01,,2013-04-01 12:52:00,
2013-04-01 09:03:00,28.0,16.0,29.93,NW,315,6.0,17.0,59,0.00,,,0.01,,2013-04-01 13:03:00,
2013-04-01 09:12:00,28.0,16.0,29.93,NW,315,6.0,17.0,59,0.00,,,0.01,,2013-04-01 13:12:00,
2013-04-01 09:22:00,28.0,16.0,29.93,WNW,293,5.0,14.0,60,0.00,,,0.01,,2013-04-01 13:22:00,
2013-04-01 09:33:00,28.0,17.0,29.94,WNW,298,4.0,10.0,62,0.00,,,0.00,,2013-04-01 13:33:00,
2013-04-01 09:42:00,28.0,17.0,29.94,WNW,298,4.0,10.0,62,0.00,,,0.00,,2013-04-01 13:42:00,
2013-04-01 09:52:00,28.0,17.0,29.94,NW,305,5.0,15.0,62,0.00,,,0.00,,2013-04-01 13:52:00,
2013-04-01 10:04:00,28.0,15.0,29.95,WNW,288,6.0,13.0,58,0.00,,,0.00,,2013-04-01 14:04:00,
2013-04-01 10:12:00,28.0,15.0,29.95,WNW,288,6.0,13.0,58,0.00,,,0.00,,2013-04-01 14:12:00,
2013-04-01 10:22:00,28.0,16.0,29.96,WNW,292,2.0,14.0,60,0.00,,,0.00,,2013-04-01 14:22:00,
2013-04-01 10:33:00,29.0,15.0,29.97,WNW,296,5.0,11.0,56,0.00,,,0.00,,2013-04-01 14:33:00,
2013-04-01 10:42:00,29.0,15.0,29.97,WNW,296,5.0,11.0,56,0.00,,,0.00,,2013-04-01 14:42:00,
2013-04-01 10:52:00,30.0,16.0,29.97,NW,309,7.0,12.0,56,0.00,,,0.00,,2013-04-01 14:52:00,
2013-04-01 11:03:00,29.0,15.0,29.97,WNW,293,8.0,14.0,55,0.00,,,0.00,,2013-04-01 15:03:00,
2013-04-01 11:13:00,29.0,15.0,29.97,WNW,293,8.0,14.0,55,0.00,,,0.00,,2013-04-01 15:13:00,
2013-04-01 11:23:00,29.0,17.0,29.98,West,281,8.0,13.0,60,0.00,,,0.00,,2013-04-01 15:23:00,
2013-04-01 11:34:00,30.0,18.0,29.98,WNW,303,5.0,13.0,61,0.00,,,0.00,,2013-04-01 15:34:00,
2013-04-01 11:43:00,30.0,18.0,29.98,WNW,303,5.0,13.0,61,0.00,,,0.00,,2013-04-01 15:43:00,
2013-04-01 11:53:00,30.0,19.0,29.98,NW,307,6.0,12.0,63,0.00,,,0.00,,2013-04-01 15:53:00,
2013-04-01 12:03:00,30.0,16.0,29.98,NW,316,5.0,12.0,55,0.00,,,0.00,,2013-04-01 16:03:00,
2013-04-01 12:13:00,30.0,16.0,29.98,NW,316,5.0,12.0,55,0.00,,,0.00,,2013-04-01 16:13:00,
2013-04-01 12:23:00,31.0,16.0,29.98,West,274,7.0,17.0,53,0.00,,,0.00,,2013-04-01 16:23:00,
2013-04-01 12:33:00,31.0,16.0,29.98,West,274,7.0,17.0,53,0.00,,,0.00,,2013-04-01 16:33:00,
2013-04-01 12:43:00,31.0,16.0,29.98,West,274,7.0,17.0,53,0.00,,,0.00,,2013-04-01 16:43:00,
2013-04-01 12:52:00,30.0,15.0,29.99,WNW,298,6.0,13.0,54,0.00,,,0.00,,2013-04-01 16:52:00,
2013-04-01 13:03:00,32.0,16.0,29.99,West,281,3.0,12.0,52,0.00,,,0.00,,2013-04-01 17:03:00,
2013-04-01 13:13:00,32.0,16.0,29.99,West,281,3.0,12.0,52,0.00,,,0.00,,2013-04-01 17:13:00,
2013-04-01 13:23:00,32.0,16.0,29.99,West,278,7.0,16.0,51,0.00,,,0.00,,2013-04-01 17:23:00,
2013-04-01 13:32:00,32.0,16.0,29.99,West,278,7.0,16.0,51,0.00,,,0.00,,2013-04-01 17:32:00,
2013-04-01 13:42:00,32.0,16.0,29.99,West,278,7.0,16.0,51,0.00,,,0.00,,2013-04-01 17:42:00,
2013-04-01 13:52:00,32.0,15.0,29.99,West,277,7.0,18.0,49,0.00,,,0.00,,2013-04-01 17:52:00,
2013-04-01 14:03:00,32.0,14.0,29.99,WNW,284,6.0,13.0,46,0.00,,,0.00,,2013-04-01 18:03:00,
2013-04-01 14:12:00,32.0,14.0,29.99,WNW,284,6.0,13.0,46,0.00,,,0.00,,2013-04-01 18:12:00,
2013-04-01 14:22:00,32.0,14.0,29.99,NW,312,5.0,11.0,47,0.00,,,0.00,,2013-04-01 18:22:00,
2013-04-01 14:33:00,32.0,14.0,29.99,WNW,300,8.0,13.0,46,0.00,,,0.00,,2013-04-01 18:33:00,
2013-04-01 14:43:00,32.0,14.0,29.99,WNW,300,8.0,13.0,46,0.00,,,0.00,,2013-04-01 18:43:00,
2013-04-01 14:52:00,34.0,14.0,29.98,WSW,256,8.0,13.0,44,0.00,,,0.00,,2013-04-01 18:52:00,
2013-04-01 15:04:00,34.0,15.0,29.99,WNW,283,9.0,17.0,45,0.00,,,0.00,,2013-04-01 19:04:00,
2013-04-01 15:13:00,34.0,15.0,29.99,WNW,283,9.0,17.0,45,0.00,,,0.00,,2013-04-01 19:13:00,
2013-04-01 15:23:00,34.0,13.0,29.99,West,281,8.0,15.0,42,0.00,,,0.00,,2013-04-01 19:23:00,
2013-04-01 15:32:00,34.0,14.0,29.98,WNW,285,5.0,18.0,43,0.00,,,0.00,,2013-04-01 19:32:00,
2013-04-01 15:42:00,34.0,14.0,29.98,WNW,285,5.0,18.0,43,0.00,,,0.00,,2013-04-01 19:42:00,
2013-04-01 15:53:00,34.0,14.0,29.99,WNW,300,8.0,16.0,43,0.00,,,0.00,,2013-04-01 19:53:00,
2013-04-01 16:02:00,34.0,14.0,29.99,WNW,301,6.0,14.0,43,0.00,,,0.00,,2013-04-01 20:02:00,
2013-04-01 16:13:00,34.0,14.0,29.99,WNW,301,6.0,14.0,43,0.00,,,0.00,,2013-04-01 20:13:00,
2013-04-01 16:23:00,34.0,14.0,29.99,WNW,283,4.0,14.0,44,0.00,,,0.00,,2013-04-01 20:23:00,
2013-04-01 16:33:00,35.0,15.0,29.99,NW,323,6.0,15.0,44,0.00,,,0.00,,2013-04-01 20:33:00,
2013-04-01 16:43:00,35.0,15.0,29.99,NW,323,6.0,15.0,44,0.00,,,0.00,,2013-04-01 20:43:00,
2013-04-01 16:52:00,34.0,15.0,29.99,NW,323,5.0,15.0,45,0.00,,,0.00,,2013-04-01 20:52:00,
2013-04-01 17:03:00,33.0,15.0,29.99,West,276,8.0,18.0,46,0.00,,,0.00,,2013-04-01 21:03:00,
2013-04-01 17:12:00,33.0,15.0,29.99,West,276,8.0,18.0,46,0.00,,,0.00,,2013-04-01 21:12:00,
2013-04-01 17:23:00,34.0,16.0,30.00,West,272,5.0,16.0,48,0.00,,,0.00,,2013-04-01 21:23:00,
2013-04-01 17:33:00,33.0,16.0,30.00,West,262,6.0,20.0,50,0.00,,,0.00,,2013-04-01 21:33:00,
2013-04-01 17:43:00,33.0,16.0,30.00,West,262,6.0,20.0,50,0.00,,,0.00,,2013-04-01 21:43:00,
2013-04-01 17:52:00,32.0,15.0,30.01,NW,307,4.0,13.0,50,0.00,,,0.00,,2013-04-01 21:52:00,
2013-04-01 18:03:00,32.0,17.0,30.01,WNW,287,6.0,13.0,53,0.00,,,0.00,,2013-04-01 22:03:00,
2013-04-01 18:13:00,32.0,17.0,30.01,WNW,287,6.0,13.0,53,0.00,,,0.00,,2013-04-01 22:13:00,
2013-04-01 18:23:00,32.0,17.0,30.02,NW,304,10.0,17.0,53,0.00,,,0.00,,2013-04-01 22:23:00,
2013-04-01 18:33:00,31.0,15.0,30.02,WNW,295,6.0,15.0,51,0.00,,,0.00,,2013-04-01 22:33:00,
2013-04-01 18:43:00,31.0,15.0,30.02,WNW,295,6.0,15.0,51,0.00,,,0.00,,2013-04-01 22:43:00,
2013-04-01 18:52:00,31.0,17.0,30.02,West,269,8.0,13.0,56,0.00,,,0.00,,2013-04-01 22:52:00,
2013-04-01 19:02:00,31.0,18.0,30.03,WNW,285,4.0,13.0,57,0.00,,,0.00,,2013-04-01 23:02:00,
2013-04-01 19:12:00,31.0,18.0,30.03,WNW,285,4.0,13.0,57,0.00,,,0.00,,2013-04-01 23:12:00,
2013-04-01 19:23:00,30.0,17.0,30.03,WNW,290,4.0,10.0,59,0.00,,,0.00,,2013-04-01 23:23:00,
2013-04-01 19:32:00,30.0,17.0,30.04,NW,314,4.0,9.0,57,0.00,,,0.00,,2013-04-01 23:32:00,
2013-04-01 19:43:00,30.0,17.0,30.04,NW,314,4.0,9.0,57,0.00,,,0.00,,2013-04-01 23:43:00,
2013-04-01 19:52:00,29.0,17.0,30.04,WNW,284,5.0,10.0,61,0.00,,,0.00,,2013-04-01 23:52:00,
2013-04-01 20:03:00,29.0,17.0,30.04,WNW,285,6.0,13.0,60,0.00,,,0.00,,2013-04-02 00:03:00,
2013-04-01 20:12:00,29.0,17.0,30.04,WNW,285,6.0,13.0,60,0.00,,,0.00,,2013-04-02 00:12:00,
2013-04-01 20:22:00,29.0,18.0,30.05,NW,312,7.0,11.0,62,0.00,,,0.00,,2013-04-02 00:22:00,
2013-04-01 20:33:00,29.0,18.0,30.05,WNW,290,5.0,13.0,64,0.00,,,0.00,,2013-04-02 00:33:00,
2013-04-01 20:42:00,29.0,18.0,30.05,WNW,290,5.0,13.0,64,0.00,,,0.00,,2013-04-02 00:42:00,
2013-04-01 20:52:00,29.0,17.0,30.06,NW,307,5.0,13.0,61,0.00,,,0.00,,2013-04-02 00:52:00,
2013-04-01 21:02:00,28.0,17.0,30.06,WNW,286,5.0,11.0,64,0.00,,,0.00,,2013-04-02 01:02:00,
2013-04-01 21:12:00,28.0,17.0,30.06,WNW,286,5.0,11.0,64,0.00,,,0.00,,2013-04-02 01:12:00,
2013-04-01 21:22:00,28.0,18.0,30.06,West,276,6.0,12.0,67,0.00,,,0.00,,2013-04-02 01:22:00,
2013-04-01 21:32:00,28.0,18.0,30.07,NW,308,6.0,11.0,66,0.00,,,0.00,,2013-04-02 01:32:00,
2013-04-01 21:42:00,28.0,18.0,30.07,NW,308,6.0,11.0,66,0.00,,,0.00,,2013-04-02 01:42:00,
2013-04-01 21:52:00,28.0,16.0,30.07,NW,307,4.0,7.0,61,0.00,,,0.00,,2013-04-02 01:52:00,
2013-04-01 22:03:00,28.0,16.0,30.08,West,278,4.0,10.0,60,0.00,,,0.00,,2013-04-02 02:03:00,
2013-04-01 22:12:00,28.0,16.0,30.08,West,278,4.0,10.0,60,0.00,,,0.00,,2013-04-02 02:12:00,
2013-04-01 22:22:00,28.0,15.0,30.08,West,280,4.0,8.0,58,0.00,,,0.00,,2013-04-02 02:22:00,
2013-04-01 22:32:00,28.0,15.0,30.08,WNW,290,4.0,8.0,58,0.00,,,0.00,,2013-04-02 02:32:00,
2013-04-01 22:42:00,28.0,15.0,30.08,WNW,290,4.0,8.0,58,0.00,,,0.00,,2013-04-02 02:42:00,
2013-04-01 22:52:00,28.0,16.0,30.08,WNW,287,4.0,7.0,59,0.00,,,0.00,,2013-04-02 02:52:00,
2013-04-01 23:02:00,27.0,16.0,30.08,WNW,286,4.0,8.0,62,0.00,,,0.00,,2013-04-02 03:02:00,
2013-04-01 23:12:00,27.0,16.0,30.08,WNW,286,4.0,8.0,62,0.00,,,0.00,,2013-04-02 03:12:00,
2013-04-01 23:22:00,27.0,16.0,30.08,WNW,291,3.0,6.0,62,0.00,,,0.00,,2013-04-02 03:22:00,
2013-04-01 23:33:00,27.0,16.0,30.08,WNW,291,3.0,6.0,62,0.00,,,0.00,,2013-04-02 03:33:00,
2013-04-01 23:43:00,27.0,16.0,30.08,WNW,291,3.0,6.0,62,0.00,,,0.00,,2013-04-02 03:43:00,
2013-04-01 23:53:00,26.0,16.0,30.08,WNW,287,2.0,5.0,64,0.00,,,0.00,,2013-04-02 03:53:00,